Página principal
METAR-TAF:

METAR-TAF

Aeroportos :

Tunes, Tunísia

Aeroporto Internacional de Túnis-Cartago

latitude: 36-50N, longitude: 010-14E, altura: 3 m

Observação actual do tempo

O boletim foi feito há 28 minutos, às 23:30 UTC
Vento 3 kt de es-sudeste
Temperatura 27°C
Humidade 54%
Pressão 1014 hPa
Visibilidade 10 km ou mais
sem nuvens abaixo de 1500 metros e sem cumulonimbus

METAR: DTTA 182330Z 12003KT CAVOK 27/17 Q1014

Hora: 00:58 (23:58 UTC)

Previsão

O boletim foi feito há 58 minutos, às 23:00 UTC
Previsão válida de 19 às 00 UTC a 19 às 24 UTC
Vento 4 kt com direcção variável
Visibilidade 10 km ou mais
sem nuvens abaixo de 1500 metros e sem cumulonimbus
Tornando-se
de 19 às 13 UTC a 19 às 15 UTC
Vento 10 kt de nordeste

TAF: DTTA 182300Z 1900/1924 VRB04KT CAVOK BECMG 1913/1915 04010KT

Observações e previsões do tempo de mais de 4000 aeroportos (mensagens METAR e TAF).

As estações disponíveis são os pontos amarelos e vermelhos sobre o mapa.

Mova o rato sobre o mapa para ver o nome da estação.

Depois clique no ponto para visualizar as observações e previsões meteorológicas.

Para alterar o mapa : clique nos botões verdes com uma cruz preta para aumentar o zoom; no botão verde com uma pitada de zoom; ou nas setas verdes para mapas adjacentes.


METAR-TAF: